createdAt,value
2022-11-15T00:00:55.383Z,5.72
2022-11-15T00:03:24.825Z,6.09
2022-11-15T00:05:51.564Z,6.02
2022-11-15T00:08:18.058Z,5.49
2022-11-15T00:10:55.220Z,6.09
2022-11-15T00:13:21.624Z,6.00
2022-11-15T00:15:48.042Z,5.05
2022-11-15T00:18:15.198Z,5.65
2022-11-15T00:20:41.707Z,5.80
2022-11-15T00:23:08.376Z,5.75
2022-11-15T00:25:35.147Z,5.44
2022-11-15T00:28:04.472Z,5.61
2022-11-15T00:30:31.651Z,5.91
2022-11-15T00:33:02.044Z,5.78
2022-11-15T00:35:28.561Z,6.39
2022-11-15T00:37:55.025Z,6.03
2022-11-15T00:40:21.421Z,6.60
2022-11-15T00:42:47.829Z,6.58
2022-11-15T00:45:14.313Z,6.52
2022-11-15T00:47:46.282Z,6.52
2022-11-15T00:50:15.103Z,6.59
2022-11-15T00:52:42.322Z,6.04
2022-11-15T00:55:14.732Z,6.51
2022-11-15T00:57:41.159Z,6.54
2022-11-15T01:00:08.320Z,6.28
2022-11-15T01:02:35.754Z,6.59
2022-11-15T01:05:02.241Z,6.46
2022-11-15T01:07:28.747Z,6.83
2022-11-15T01:09:55.170Z,7.00
2022-11-15T01:12:21.651Z,6.97
2022-11-15T01:14:48.107Z,6.88
2022-11-15T01:17:14.518Z,6.92
2022-11-15T01:19:40.922Z,6.92
2022-11-15T01:22:07.365Z,6.91
2022-11-15T01:24:33.853Z,6.86
2022-11-15T01:27:00.339Z,6.81
2022-11-15T01:29:26.819Z,6.84
2022-11-15T01:31:55.151Z,6.78
2022-11-15T01:34:21.576Z,6.71
2022-11-15T01:36:47.978Z,6.68
2022-11-15T01:39:14.526Z,6.34
2022-11-15T01:41:40.986Z,6.64
2022-11-15T01:44:32.324Z,6.61
2022-11-15T01:47:01.994Z,6.54
2022-11-15T01:49:33.369Z,6.61
2022-11-15T01:52:03.582Z,6.22
2022-11-15T01:54:30.782Z,6.57
2022-11-15T01:57:04.792Z,5.92
2022-11-15T01:59:31.831Z,6.51
2022-11-15T02:01:58.555Z,5.89
2022-11-15T02:04:33.984Z,5.96
2022-11-15T02:07:04.499Z,6.10
2022-11-15T02:09:31.711Z,6.31
2022-11-15T02:11:58.602Z,6.13
2022-11-15T02:14:27.603Z,6.26
2022-11-15T02:17:10.377Z,6.33
2022-11-15T02:20:12.211Z,6.29
2022-11-15T02:23:07.548Z,6.16
2022-11-15T02:25:37.067Z,6.26
2022-11-15T02:28:33.447Z,6.29
2022-11-15T02:31:23.845Z,5.83
2022-11-15T02:33:57.875Z,5.95
2022-11-15T02:36:41.079Z,6.26
2022-11-15T02:39:35.799Z,6.26
2022-11-15T02:42:30.388Z,5.98
2022-11-15T02:44:59.250Z,6.22
2022-11-15T02:47:28.883Z,6.27
2022-11-15T02:50:09.268Z,6.28
2022-11-15T02:52:35.736Z,6.28
2022-11-15T02:55:03.337Z,6.27
2022-11-15T02:57:48.468Z,6.42
2022-11-15T03:00:20.444Z,6.43
2022-11-15T03:03:20.910Z,6.14
2022-11-15T03:06:09.217Z,6.46
2022-11-15T03:08:46.626Z,5.96
2022-11-15T03:11:16.679Z,6.40
2022-11-15T03:13:58.763Z,6.32
2022-11-15T03:16:27.947Z,6.43
2022-11-15T03:19:04.217Z,6.39
2022-11-15T03:21:33.277Z,6.43
2022-11-15T03:24:04.919Z,5.56
2022-11-15T03:26:33.366Z,6.13
2022-11-15T03:29:09.114Z,6.09
2022-11-15T03:31:51.157Z,6.43
2022-11-15T03:34:39.537Z,6.44
2022-11-15T03:37:06.941Z,6.48
2022-11-15T03:39:34.096Z,6.51
2022-11-15T03:42:07.993Z,6.47
2022-11-15T03:44:47.700Z,6.12
2022-11-15T03:47:24.590Z,6.51
2022-11-15T03:50:00.267Z,6.32
2022-11-15T03:52:26.768Z,6.52
2022-11-15T03:54:57.672Z,5.89
2022-11-15T03:57:24.142Z,6.60
2022-11-15T03:59:52.898Z,6.27
2022-11-15T04:02:19.333Z,6.43
2022-11-15T04:04:45.852Z,6.62
2022-11-15T04:07:12.616Z,6.61
2022-11-15T04:09:59.322Z,6.42
2022-11-15T04:12:31.911Z,6.63
2022-11-15T04:15:10.622Z,6.60
2022-11-15T04:17:47.869Z,6.54
2022-11-15T04:20:35.274Z,6.41
2022-11-15T04:23:22.496Z,5.75
2022-11-15T04:25:52.162Z,6.18
2022-11-15T04:28:19.154Z,6.51
2022-11-15T04:30:45.624Z,6.54
2022-11-15T04:33:12.099Z,6.56
2022-11-15T04:35:38.633Z,6.62
2022-11-15T04:38:07.630Z,6.64
2022-11-15T04:40:34.744Z,6.48
2022-11-15T04:43:04.000Z,6.68
2022-11-15T04:45:31.413Z,6.69
2022-11-15T04:47:57.869Z,6.70
2022-11-15T04:50:24.297Z,6.47
2022-11-15T04:52:53.481Z,6.81
2022-11-15T04:55:20.342Z,6.62
2022-11-15T04:57:46.884Z,6.82
2022-11-15T05:00:15.953Z,6.70
2022-11-15T05:03:00.855Z,6.97
2022-11-15T05:05:27.313Z,6.31
2022-11-15T05:07:53.772Z,6.97
2022-11-15T05:10:20.217Z,7.04
2022-11-15T05:12:47.757Z,6.95
2022-11-15T05:15:14.303Z,7.15
2022-11-15T05:17:40.755Z,7.16
2022-11-15T05:20:07.835Z,7.08
2022-11-15T05:22:34.369Z,6.97
2022-11-15T05:25:00.859Z,6.93
2022-11-15T05:27:27.334Z,6.61
2022-11-15T05:29:53.793Z,6.33
2022-11-15T05:32:20.194Z,7.27
2022-11-15T05:34:47.413Z,7.31
2022-11-15T05:37:15.210Z,7.15
2022-11-15T05:39:41.693Z,7.36
2022-11-15T05:42:14.324Z,7.31
2022-11-15T05:44:45.645Z,7.44
2022-11-15T05:47:18.130Z,7.43
2022-11-15T05:49:46.448Z,7.52
2022-11-15T05:52:16.430Z,7.39
2022-11-15T05:54:43.608Z,7.62
2022-11-15T05:57:10.154Z,7.61
2022-11-15T05:59:37.313Z,7.39
2022-11-15T06:02:03.940Z,7.72
2022-11-15T06:04:30.463Z,7.02
2022-11-15T06:06:58.882Z,7.31
2022-11-15T06:09:25.384Z,7.68
2022-11-15T06:11:51.793Z,7.62
2022-11-15T06:14:18.198Z,7.81
2022-11-15T06:16:45.073Z,7.15
2022-11-15T06:19:11.552Z,7.82
2022-11-15T06:21:38.015Z,7.44
2022-11-15T06:24:05.575Z,7.71
2022-11-15T06:26:32.630Z,7.73
2022-11-15T06:28:59.137Z,7.88
2022-11-15T06:31:25.656Z,8.05
2022-11-15T06:33:52.128Z,7.99
2022-11-15T06:36:19.095Z,8.08
2022-11-15T06:38:45.985Z,8.10
2022-11-15T06:41:13.858Z,8.12
2022-11-15T06:43:40.880Z,7.57
2022-11-15T06:46:07.988Z,7.27
2022-11-15T06:48:35.393Z,7.99
2022-11-15T06:51:03.540Z,7.58
2022-11-15T06:53:31.387Z,7.90
2022-11-15T06:56:02.409Z,8.25
2022-11-15T06:58:28.944Z,7.98
2022-11-15T07:00:59.757Z,8.30
2022-11-15T07:03:26.871Z,8.26
2022-11-15T07:05:55.682Z,8.28
2022-11-15T07:08:23.296Z,8.38
2022-11-15T07:10:50.223Z,8.33
2022-11-15T07:13:17.017Z,8.21
2022-11-15T07:15:43.565Z,8.32
2022-11-15T07:18:10.081Z,8.47
2022-11-15T07:20:36.498Z,8.49
2022-11-15T07:23:06.971Z,8.42
2022-11-15T07:25:33.753Z,8.42
2022-11-15T07:28:01.079Z,8.74
2022-11-15T07:30:28.809Z,8.64
2022-11-15T07:32:56.692Z,8.72
2022-11-15T07:35:24.338Z,8.49
2022-11-15T07:37:58.527Z,8.82
2022-11-15T07:40:25.988Z,8.76
2022-11-15T07:42:55.386Z,8.89
2022-11-15T07:45:22.659Z,8.92
2022-11-15T07:47:50.725Z,8.56
2022-11-15T07:50:18.484Z,8.84
2022-11-15T07:52:45.407Z,8.73
2022-11-15T07:55:12.056Z,8.31
2022-11-15T07:57:38.555Z,8.99
2022-11-15T08:00:06.464Z,8.84
2022-11-15T08:02:33.117Z,9.03
2022-11-15T08:05:00.299Z,8.96
2022-11-15T08:07:29.947Z,8.43
2022-11-15T08:09:56.501Z,8.63
2022-11-15T08:12:23.358Z,8.63
2022-11-15T08:14:50.361Z,9.15
2022-11-15T08:17:16.853Z,9.15
2022-11-15T08:19:43.299Z,9.13
2022-11-15T08:22:09.776Z,8.98
2022-11-15T08:24:36.266Z,8.52
2022-11-15T08:27:02.785Z,8.22
2022-11-15T08:29:29.297Z,9.14
2022-11-15T08:31:57.107Z,9.16
2022-11-15T08:34:23.554Z,8.99
2022-11-15T08:36:50.195Z,9.19
2022-11-15T08:39:16.641Z,9.19
2022-11-15T08:41:43.058Z,9.18
2022-11-15T08:44:09.509Z,9.20
2022-11-15T08:46:35.929Z,9.09
2022-11-15T08:49:02.340Z,9.36
2022-11-15T08:51:28.827Z,9.42
2022-11-15T08:53:55.298Z,9.43
2022-11-15T08:56:21.763Z,9.49
2022-11-15T08:58:48.605Z,9.50
2022-11-15T09:01:20.486Z,9.56
2022-11-15T09:03:46.946Z,9.52
2022-11-15T09:06:13.782Z,9.65
2022-11-15T09:08:47.016Z,9.12
2022-11-15T09:11:14.190Z,9.40
2022-11-15T09:13:40.719Z,9.94
2022-11-15T09:16:07.695Z,9.66
2022-11-15T09:18:34.447Z,10.04
2022-11-15T09:21:03.227Z,9.58
2022-11-15T09:23:29.953Z,9.83
2022-11-15T09:26:02.176Z,10.17
2022-11-15T09:28:29.943Z,10.33
2022-11-15T09:31:01.069Z,10.48
2022-11-15T09:33:28.134Z,10.04
2022-11-15T09:35:55.207Z,10.56
2022-11-15T09:38:21.879Z,10.53
2022-11-15T09:40:58.484Z,10.27
2022-11-15T09:43:31.953Z,10.79
2022-11-15T09:46:16.205Z,11.12
2022-11-15T09:48:55.268Z,11.07
2022-11-15T09:51:28.503Z,10.58
2022-11-15T09:57:05.185Z,11.20
2022-11-15T09:59:43.551Z,11.54
2022-11-15T10:02:47.246Z,11.71
2022-11-15T10:05:19.215Z,11.77
2022-11-15T10:07:59.410Z,11.44
2022-11-15T10:10:47.740Z,11.83
2022-11-15T10:13:23.580Z,11.84
2022-11-15T10:15:51.979Z,11.76
2022-11-15T10:18:35.595Z,11.86
2022-11-15T10:21:18.569Z,11.91
2022-11-15T10:23:45.194Z,11.38
2022-11-15T10:26:16.500Z,11.84
2022-11-15T10:28:42.949Z,11.90
2022-11-15T10:31:28.678Z,11.40
2022-11-15T10:34:13.652Z,11.93
2022-11-15T10:36:54.909Z,11.44
2022-11-15T10:42:18.134Z,11.97
2022-11-15T10:44:45.965Z,11.93
2022-11-15T10:47:37.830Z,11.97
2022-11-15T10:50:28.090Z,12.01
2022-11-15T10:52:54.827Z,11.73
2022-11-15T10:55:28.982Z,11.63
2022-11-15T10:58:34.270Z,11.89
2022-11-15T11:01:11.595Z,11.42
2022-11-15T11:03:40.197Z,11.84
2022-11-15T11:06:17.903Z,11.77
2022-11-15T11:09:06.244Z,11.76
2022-11-15T11:11:47.448Z,11.82
2022-11-15T11:14:23.280Z,12.01
2022-11-15T11:16:56.294Z,12.07
2022-11-15T11:19:42.769Z,11.96
2022-11-15T11:22:40.338Z,12.23
2022-11-15T11:25:23.830Z,12.17
2022-11-15T11:28:02.359Z,12.38
2022-11-15T11:30:46.907Z,12.36
2022-11-15T11:33:50.652Z,12.20
2022-11-15T11:36:28.391Z,12.44
2022-11-15T11:38:56.196Z,12.51
2022-11-15T11:41:50.861Z,12.53
2022-11-15T11:44:42.472Z,12.44
2022-11-15T11:47:17.165Z,12.54
2022-11-15T11:49:57.947Z,12.59
2022-11-15T11:52:42.489Z,12.77
2022-11-15T11:55:18.024Z,12.80
2022-11-15T11:58:05.692Z,12.52
2022-11-15T12:00:37.051Z,12.76
2022-11-15T12:03:15.196Z,12.83
2022-11-15T12:05:50.154Z,12.72
2022-11-15T12:08:19.355Z,12.81
2022-11-15T12:10:51.681Z,12.60
2022-11-15T12:13:24.533Z,13.02
2022-11-15T12:16:10.447Z,13.10
2022-11-15T12:18:37.871Z,12.98
2022-11-15T12:21:15.764Z,13.23
2022-11-15T12:23:49.174Z,13.13
2022-11-15T12:26:27.130Z,12.79
2022-11-15T12:29:07.595Z,13.15
2022-11-15T12:31:52.414Z,13.78
2022-11-15T12:34:21.718Z,13.82
2022-11-15T12:36:50.244Z,14.11
2022-11-15T12:39:17.958Z,14.19
2022-11-15T12:42:05.869Z,14.43
2022-11-15T12:44:32.313Z,14.37
2022-11-15T12:46:58.745Z,14.24
2022-11-15T12:49:43.394Z,13.95
2022-11-15T12:52:10.880Z,13.79
2022-11-15T12:54:37.274Z,13.95
2022-11-15T12:57:03.713Z,14.14
2022-11-15T12:59:54.215Z,14.19
2022-11-15T13:02:24.918Z,14.44
2022-11-15T13:04:53.405Z,14.54
2022-11-15T13:07:41.872Z,14.58
2022-11-15T13:10:11.416Z,14.51
2022-11-15T13:12:43.671Z,14.58
2022-11-15T13:15:13.168Z,14.48
2022-11-15T13:17:56.813Z,13.86
2022-11-15T13:20:32.020Z,14.38
2022-11-15T13:23:16.780Z,14.04
2022-11-15T13:25:58.429Z,14.13
2022-11-15T13:28:38.510Z,13.69
2022-11-15T13:31:38.066Z,14.07
2022-11-15T13:37:23.578Z,13.64
2022-11-15T13:39:50.748Z,13.80
2022-11-15T13:42:19.182Z,13.66
2022-11-15T13:44:57.659Z,13.89
2022-11-15T13:47:28.138Z,13.74
2022-11-15T13:49:54.676Z,13.66
2022-11-15T13:52:22.542Z,13.74
2022-11-15T13:55:00.525Z,13.95
2022-11-15T13:57:31.169Z,13.88
2022-11-15T14:00:02.164Z,13.67
2022-11-15T14:02:33.746Z,14.43
2022-11-15T14:05:16.393Z,14.34
2022-11-15T14:07:55.005Z,14.75
2022-11-15T14:10:33.773Z,14.75
2022-11-15T14:13:01.412Z,14.60
2022-11-15T14:15:36.622Z,13.95
2022-11-15T14:18:04.661Z,14.30
2022-11-15T14:20:37.761Z,14.34
2022-11-15T14:23:19.210Z,14.28
2022-11-15T14:25:54.612Z,14.20
2022-11-15T14:28:24.199Z,14.04
2022-11-15T14:30:55.521Z,13.99
2022-11-15T14:33:26.483Z,14.15
2022-11-15T14:35:54.060Z,13.99
2022-11-15T14:38:20.741Z,13.33
2022-11-15T14:40:47.524Z,13.58
2022-11-15T14:43:14.422Z,13.65
2022-11-15T14:45:41.584Z,13.43
2022-11-15T14:48:08.505Z,13.35
2022-11-15T14:50:35.960Z,12.80
2022-11-15T14:53:03.383Z,12.58
2022-11-15T14:55:34.795Z,12.95
2022-11-15T14:58:03.310Z,12.80
2022-11-15T15:00:35.409Z,12.52
2022-11-15T15:03:03.149Z,12.14
2022-11-15T15:05:35.284Z,12.36
2022-11-15T15:08:01.851Z,12.25
2022-11-15T15:10:39.959Z,12.04
2022-11-15T15:13:11.452Z,11.71
2022-11-15T15:15:38.733Z,11.43
2022-11-15T15:18:05.919Z,11.70
2022-11-15T15:20:33.415Z,11.68
2022-11-15T15:22:59.885Z,11.25
2022-11-15T15:25:33.027Z,11.53
2022-11-15T15:28:00.471Z,11.26
2022-11-15T15:30:29.942Z,11.03
2022-11-15T15:32:56.760Z,11.30
2022-11-15T15:35:23.729Z,11.22
2022-11-15T15:37:51.157Z,10.80
2022-11-15T15:40:21.151Z,11.10
2022-11-15T15:42:48.744Z,10.57
2022-11-15T15:45:16.497Z,10.94
2022-11-15T15:47:43.608Z,10.97
2022-11-15T15:50:33.120Z,10.79
2022-11-15T15:53:01.816Z,10.73
2022-11-15T15:55:28.903Z,10.58
2022-11-15T15:57:55.641Z,10.36
2022-11-15T16:00:24.641Z,10.14
2022-11-15T16:02:51.768Z,10.26
2022-11-15T16:05:18.717Z,10.63
2022-11-15T16:07:47.389Z,10.06
2022-11-15T16:10:21.397Z,10.56
2022-11-15T16:12:48.818Z,10.44
2022-11-15T16:15:15.627Z,10.30
2022-11-15T16:17:48.016Z,10.13
2022-11-15T16:20:45.462Z,10.58
2022-11-15T16:23:15.426Z,10.56
2022-11-15T16:25:59.028Z,10.78
2022-11-15T16:28:28.003Z,10.89
2022-11-15T16:31:07.142Z,10.91
2022-11-15T16:33:34.255Z,10.88
2022-11-15T16:36:01.147Z,10.91
2022-11-15T16:38:28.165Z,10.82
2022-11-15T16:40:54.668Z,10.91
2022-11-15T16:43:21.103Z,10.98
2022-11-15T16:45:47.911Z,10.60
2022-11-15T16:48:25.578Z,10.96
2022-11-15T16:50:56.348Z,10.99
2022-11-15T16:53:23.898Z,10.95
2022-11-15T16:55:50.425Z,10.84
2022-11-15T16:58:16.850Z,10.93
2022-11-15T17:00:43.547Z,10.88
2022-11-15T17:03:10.123Z,10.90
2022-11-15T17:05:37.085Z,10.75
2022-11-15T17:08:03.543Z,10.76
2022-11-15T17:10:30.290Z,10.84
2022-11-15T17:12:56.891Z,10.24
2022-11-15T17:15:24.558Z,10.73
2022-11-15T17:17:55.074Z,10.70
2022-11-15T17:20:23.798Z,10.20
2022-11-15T17:22:50.336Z,10.57
2022-11-15T17:25:17.008Z,10.17
2022-11-15T17:27:43.516Z,10.51
2022-11-15T17:30:15.229Z,10.20
2022-11-15T17:32:42.979Z,10.59
2022-11-15T17:35:43.446Z,10.59
2022-11-15T17:38:09.959Z,10.17
2022-11-15T17:40:36.421Z,9.90
2022-11-15T17:43:04.749Z,10.55
2022-11-15T17:45:31.210Z,10.58
2022-11-15T17:47:57.667Z,10.21
2022-11-15T17:50:24.137Z,10.61
2022-11-15T17:52:50.666Z,9.99
2022-11-15T17:55:17.086Z,10.54
2022-11-15T17:57:44.221Z,10.71
2022-11-15T18:00:11.471Z,10.80
2022-11-15T18:02:38.034Z,10.71
2022-11-15T18:05:04.879Z,10.16
2022-11-15T18:07:31.392Z,10.83
2022-11-15T18:09:57.932Z,10.52
2022-11-15T18:12:24.489Z,10.73
2022-11-15T18:14:50.944Z,10.75
2022-11-15T18:17:19.067Z,10.84
2022-11-15T18:19:45.550Z,10.82
2022-11-15T18:22:12.017Z,10.26
2022-11-15T18:24:38.715Z,10.87
2022-11-15T18:27:06.397Z,10.84
2022-11-15T18:29:34.643Z,10.83
2022-11-15T18:32:03.998Z,10.54
2022-11-15T18:34:32.574Z,10.89
2022-11-15T18:37:00.487Z,10.39
2022-11-15T18:39:26.992Z,10.64
2022-11-15T18:41:53.612Z,10.91
2022-11-15T18:44:20.086Z,10.86
2022-11-15T18:46:46.621Z,10.57
2022-11-15T18:49:15.214Z,10.94
2022-11-15T18:51:42.231Z,10.89
2022-11-15T18:54:13.555Z,10.81
2022-11-15T18:56:40.643Z,10.72
2022-11-15T18:59:08.804Z,10.79
2022-11-15T19:01:40.244Z,10.82
2022-11-15T19:04:09.856Z,10.91
2022-11-15T19:06:41.947Z,10.89
2022-11-15T19:09:10.297Z,10.87
2022-11-15T19:11:39.460Z,10.25
2022-11-15T19:14:11.438Z,10.42
2022-11-15T19:16:40.656Z,10.92
2022-11-15T19:19:11.446Z,10.96
2022-11-15T19:21:38.360Z,10.91
2022-11-15T19:24:05.582Z,10.62
2022-11-15T19:26:32.380Z,10.93
2022-11-15T19:29:01.290Z,10.90
2022-11-15T19:31:29.647Z,10.91
2022-11-15T19:33:58.830Z,10.94
2022-11-15T19:36:28.941Z,10.93
2022-11-15T19:38:56.485Z,10.89
2022-11-15T19:41:25.933Z,10.83
2022-11-15T19:43:52.854Z,10.89
2022-11-15T19:46:21.916Z,10.96
2022-11-15T19:48:48.669Z,11.11
2022-11-15T19:51:19.243Z,11.10
2022-11-15T19:53:45.915Z,11.12
2022-11-15T19:56:17.908Z,11.10
2022-11-15T19:58:45.740Z,10.86
2022-11-15T20:01:32.372Z,11.25
2022-11-15T20:04:00.008Z,11.09
2022-11-15T20:06:39.271Z,10.43
2022-11-15T20:09:18.361Z,11.24
2022-11-15T20:11:45.065Z,11.22
2022-11-15T20:14:13.708Z,10.89
2022-11-15T20:16:40.535Z,11.19
2022-11-15T20:19:08.487Z,11.25
2022-11-15T20:21:35.899Z,11.27
2022-11-15T20:24:02.323Z,11.29
2022-11-15T20:26:30.416Z,10.95
2022-11-15T20:29:01.174Z,11.27
2022-11-15T20:31:28.356Z,11.13
2022-11-15T20:33:54.872Z,11.32
2022-11-15T20:36:21.335Z,11.21
2022-11-15T20:38:47.837Z,11.19
2022-11-15T20:41:14.780Z,11.25
2022-11-15T20:43:43.508Z,11.39
2022-11-15T20:46:12.107Z,11.45
2022-11-15T20:48:38.737Z,10.80
2022-11-15T20:51:06.610Z,10.99
2022-11-15T20:53:33.417Z,11.35
2022-11-15T20:56:14.582Z,11.38
2022-11-15T20:58:41.895Z,11.38
2022-11-15T21:01:10.712Z,11.36
2022-11-15T21:03:37.411Z,11.33
2022-11-15T21:06:03.945Z,11.34
2022-11-15T21:08:53.681Z,11.32
2022-11-15T21:11:42.070Z,11.30
2022-11-15T21:14:09.752Z,10.97
2022-11-15T21:16:36.740Z,11.15
2022-11-15T21:19:05.565Z,11.38
2022-11-15T21:21:32.198Z,11.27
2022-11-15T21:23:58.707Z,11.36
2022-11-15T21:26:26.447Z,11.33
2022-11-15T21:28:52.910Z,10.71
2022-11-15T21:31:19.313Z,10.77
2022-11-15T21:33:45.767Z,11.15
2022-11-15T21:36:12.626Z,10.87
2022-11-15T21:38:39.054Z,11.25
2022-11-15T21:41:06.116Z,10.81
2022-11-15T21:43:32.712Z,11.12
2022-11-15T21:46:04.378Z,10.88
2022-11-15T21:48:33.119Z,11.26
2022-11-15T21:51:05.498Z,11.21
2022-11-15T21:53:32.726Z,11.33
2022-11-15T21:56:00.271Z,11.29
2022-11-15T21:58:27.084Z,10.78
2022-11-15T22:01:15.386Z,11.47
2022-11-15T22:03:42.647Z,11.41
2022-11-15T22:06:16.011Z,11.27
2022-11-15T22:08:44.682Z,11.28
2022-11-15T22:11:11.121Z,11.33
2022-11-15T22:13:37.938Z,10.80
2022-11-15T22:16:04.540Z,10.69
2022-11-15T22:18:31.234Z,11.19
2022-11-15T22:21:00.650Z,10.64
2022-11-15T22:23:29.716Z,11.17
2022-11-15T22:25:56.828Z,10.47
2022-11-15T22:28:24.072Z,11.17
2022-11-15T22:30:53.387Z,11.22
2022-11-15T22:33:22.389Z,11.03
2022-11-15T22:35:49.705Z,11.33
2022-11-15T22:38:16.548Z,11.20
2022-11-15T22:40:43.755Z,11.17
2022-11-15T22:43:13.131Z,11.17
2022-11-15T22:45:55.975Z,10.69
2022-11-15T22:48:29.249Z,10.61
2022-11-15T22:50:56.425Z,10.98
2022-11-15T22:53:23.782Z,10.92
2022-11-15T22:55:56.182Z,11.00
2022-11-15T22:58:24.753Z,10.87
2022-11-15T23:00:52.978Z,10.91
2022-11-15T23:03:20.815Z,10.90
2022-11-15T23:05:48.114Z,10.59
2022-11-15T23:08:14.912Z,10.95
2022-11-15T23:11:00.352Z,10.85
2022-11-15T23:13:29.225Z,10.80
2022-11-15T23:16:23.999Z,10.73
2022-11-15T23:18:51.730Z,10.63
2022-11-15T23:21:43.577Z,10.63
2022-11-15T23:24:11.952Z,9.91
2022-11-15T23:26:39.411Z,10.61
2022-11-15T23:29:08.128Z,10.59
2022-11-15T23:32:01.163Z,10.40
2022-11-15T23:34:29.369Z,10.26
2022-11-15T23:36:55.952Z,10.38
2022-11-15T23:39:22.564Z,10.16
2022-11-15T23:41:49.085Z,10.28
2022-11-15T23:44:15.657Z,9.98
2022-11-15T23:46:42.297Z,9.89
2022-11-15T23:49:08.898Z,9.49
2022-11-15T23:51:36.016Z,10.11
2022-11-15T23:54:02.548Z,9.96
2022-11-15T23:56:29.119Z,9.85
2022-11-15T23:58:55.813Z,9.50
